Time;durP1;ratioP1;P1;durP2;ratioP2;P2;SDS_P1;SDS_P2;PMS_P1;PMS_P2;Temp;Humidity;BMP_temperature;BMP_pressure;BME280_temperature;BME280_humidity;BME280_pressure;Samples;Min_cycle;Max_cycle;Signal;HPM_P1;HPM_P2
2021/07/31 00:00:00;;;;;;;16.42;9.48;;;;;;;18.87;79.89;99290.67;2673213;89;21293;-62
2021/07/31 00:04:06;;;;;;;15.00;8.58;;;;;;;18.87;80.24;99291.52;2739858;86;21081;-62
2021/07/31 00:13:43;;;;;;;14.85;8.98;;;;;;;19.00;80.29;99284.49;2729495;85;21047;-62
2021/07/31 00:18:21;;;;;;;18.45;9.70;;;;;;;19.11;79.73;99278.50;2693278;88;21054;-63
2021/07/31 00:22:25;;;;;;;19.45;8.58;;;;;;;19.24;79.29;99275.79;2692973;88;21587;-63
2021/07/31 00:27:06;;;;;;;17.02;9.73;;;;;;;19.26;78.44;99276.44;2693327;88;21050;-62
2021/07/31 00:31:09;;;;;;;24.18;10.60;;;;;;;19.09;79.32;99284.63;2692802;88;21531;-62
2021/07/31 00:35:13;;;;;;;14.00;8.68;;;;;;;18.97;80.24;99285.19;2693152;88;21026;-62
2021/07/31 00:39:53;;;;;;;12.28;9.20;;;;;;;18.90;80.58;99276.78;2692607;88;21085;-62
2021/07/31 00:43:56;;;;;;;18.98;10.32;;;;;;;18.76;80.75;99278.63;2708579;88;21099;-62
2021/07/31 00:48:36;;;;;;;18.50;10.08;;;;;;;18.62;81.13;99268.35;2708614;87;21008;-62
2021/07/31 00:52:40;;;;;;;13.32;9.20;;;;;;;18.53;81.64;99276.59;2708393;88;21023;-63
2021/07/31 00:57:20;;;;;;;18.17;8.18;;;;;;;18.58;81.95;99273.30;2708601;87;21063;-62
2021/07/31 01:01:23;;;;;;;12.55;7.75;;;;;;;18.61;81.71;99261.31;2716108;86;21060;-62
2021/07/31 01:05:29;;;;;;;17.40;9.55;;;;;;;18.64;81.81;99260.89;2716849;87;21091;-62
2021/07/31 01:09:37;;;;;;;13.95;9.03;;;;;;;18.66;81.69;99260.17;2715783;86;21071;-62
2021/07/31 01:13:44;;;;;;;17.25;10.13;;;;;;;18.72;81.67;99264.73;2715557;87;21066;-62
2021/07/31 01:17:47;;;;;;;;;;;;;;;18.70;81.60;99269.50;2718161;87;21081;-62
2021/07/31 01:21:49;;;;;;;18.42;10.88;;;;;;;18.68;81.98;99261.64;2715610;87;20151;-63
2021/07/31 01:25:51;;;;;;;21.77;10.60;;;;;;;18.64;81.96;99270.32;2715663;86;21070;-62
2021/07/31 01:29:53;;;;;;;12.70;10.72;;;;;;;18.59;82.04;99268.23;2715488;87;21070;-63
2021/07/31 01:33:57;;;;;;;13.18;9.90;;;;;;;18.50;82.44;99268.93;2715096;87;21051;-63
2021/07/31 01:38:01;;;;;;;14.90;9.75;;;;;;;18.45;82.92;99262.48;2715227;87;21039;-62
2021/07/31 01:42:09;;;;;;;14.50;11.50;;;;;;;18.43;83.13;99261.36;2714877;87;21059;-62
2021/07/31 01:46:14;;;;;;;18.80;10.70;;;;;;;18.46;83.17;99253.37;2715188;87;21022;-62
2021/07/31 01:50:18;;;;;;;13.05;9.43;;;;;;;18.54;82.96;99239.74;2715358;87;21054;-62
2021/07/31 01:54:21;;;;;;;18.65;11.03;;;;;;;18.62;82.92;99238.20;2715268;87;21520;-62
2021/07/31 01:58:22;;;;;;;11.15;9.80;;;;;;;18.72;82.78;99245.06;2715138;87;21043;-63
2021/07/31 02:02:25;;;;;;;17.12;10.35;;;;;;;18.85;82.14;99246.41;2715474;87;21070;-62
2021/07/31 02:06:29;;;;;;;13.30;10.35;;;;;;;18.90;81.74;99243.95;2715558;86;21022;-62
2021/07/31 02:10:36;;;;;;;13.77;9.50;;;;;;;18.98;81.79;99251.00;2715762;87;21055;-62
2021/07/31 02:14:41;;;;;;;12.82;10.60;;;;;;;18.99;81.70;99264.82;2715516;87;21050;-62
2021/07/31 02:18:45;;;;;;;18.17;10.65;;;;;;;19.09;82.01;99276.53;2715595;87;21060;-62
2021/07/31 02:22:47;;;;;;;12.55;9.65;;;;;;;19.20;82.19;99272.39;2715439;87;21537;-62
2021/07/31 02:26:50;;;;;;;15.48;10.53;;;;;;;19.28;82.09;99265.97;2715284;87;21676;-62
2021/07/31 02:30:52;;;;;;;13.28;9.43;;;;;;;19.38;81.94;99269.05;2715846;87;21561;-62
2021/07/31 02:34:54;;;;;;;12.73;9.68;;;;;;;19.46;81.82;99266.16;2715577;87;21054;-63
2021/07/31 02:38:57;;;;;;;20.00;9.98;;;;;;;19.50;81.72;99278.18;2715773;87;21074;-62
2021/07/31 02:42:59;;;;;;;14.40;10.28;;;;;;;19.38;81.83;99277.98;2715769;87;21078;-63
2021/07/31 02:47:00;;;;;;;13.28;9.05;;;;;;;19.40;82.11;99267.82;2715816;87;21014;-62
2021/07/31 02:51:07;;;;;;;15.32;8.30;;;;;;;19.45;81.75;99271.75;2715982;87;21110;-63
2021/07/31 02:55:10;;;;;;;10.53;8.23;;;;;;;19.45;81.25;99263.66;2715552;86;21047;-63
2021/07/31 02:59:12;;;;;;;12.37;8.50;;;;;;;19.41;81.28;99255.99;2705952;87;21070;-63
2021/07/31 03:03:14;;;;;;;13.80;8.90;;;;;;;19.40;80.77;99256.19;2674609;89;21094;-62
2021/07/31 03:12:39;;;;;;;14.98;9.80;;;;;;;19.38;80.63;99258.27;2674621;89;21050;-62
2021/07/31 03:17:21;;;;;;;16.00;9.25;;;;;;;19.37;80.63;99256.61;2675516;89;21051;-62
2021/07/31 03:21:22;;;;;;;11.22;8.25;;;;;;;19.35;80.52;99254.11;2675213;89;21011;-63
2021/07/31 03:25:23;;;;;;;12.18;9.75;;;;;;;19.34;80.48;99257.03;2675517;89;21098;-63
2021/07/31 03:30:04;;;;;;;14.45;8.90;;;;;;;19.34;80.53;99261.08;2675746;89;21074;-63
2021/07/31 03:34:06;;;;;;;9.95;8.10;;;;;;;19.37;80.49;99255.27;2585123;91;21064;-62
2021/07/31 03:38:44;;;;;;;11.83;7.78;;;;;;;19.44;80.71;99264.70;2585660;92;21059;-63
2021/07/31 03:42:47;;;;;;;9.88;7.10;;;;;;;19.52;81.13;99265.81;2585272;92;21056;-63
2021/07/31 03:47:25;;;;;;;10.28;7.53;;;;;;;19.64;81.33;99261.95;2585327;92;21342;-62
2021/07/31 03:51:28;;;;;;;7.67;6.87;;;;;;;19.77;81.08;99261.13;2585251;92;21092;-63
2021/07/31 03:55:31;;;;;;;11.30;7.75;;;;;;;19.93;81.28;99270.65;2585150;92;21573;-63
2021/07/31 04:00:11;;;;;;;7.62;6.75;;;;;;;20.07;80.72;99274.97;2611427;88;21109;-62
2021/07/31 04:04:14;;;;;;;10.55;5.83;;;;;;;20.17;79.66;99275.03;2708131;86;21023;-63
2021/07/31 04:08:16;;;;;;;8.68;6.72;;;;;;;20.29;78.93;99271.98;2725518;85;21089;-62
2021/07/31 04:12:20;;;;;;;10.72;6.60;;;;;;;20.43;78.92;99272.73;2743220;86;21071;-62
2021/07/31 04:16:24;;;;;;;11.40;6.72;;;;;;;20.56;78.72;99282.63;2713919;86;21098;-62
2021/07/31 04:20:25;;;;;;;8.10;6.60;;;;;;;20.71;78.39;99289.63;2699596;88;21030;-62
2021/07/31 04:24:29;;;;;;;9.00;6.05;;;;;;;20.86;78.21;99289.34;2699762;88;21065;-63
2021/07/31 04:28:33;;;;;;;6.70;5.45;;;;;;;20.99;77.98;99285.22;2699469;88;21068;-62
2021/07/31 04:32:41;;;;;;;6.12;4.83;;;;;;;21.14;77.65;99287.59;2699698;88;21098;-62
2021/07/31 04:36:45;;;;;;;12.15;5.45;;;;;;;21.28;77.13;99295.61;2699987;88;21061;-63
2021/07/31 04:40:54;;;;;;;10.80;6.15;;;;;;;21.43;76.98;99296.11;2676342;88;21109;-62
2021/07/31 04:44:58;;;;;;;5.83;4.58;;;;;;;21.62;76.70;99289.38;2699983;88;21121;-62
2021/07/31 04:49:04;;;;;;;5.75;4.28;;;;;;;21.73;75.79;99295.42;2700151;88;21049;-62
2021/07/31 04:53:09;;;;;;;7.58;4.75;;;;;;;21.88;75.40;99295.59;2699901;88;22260;-63
2021/07/31 04:57:15;;;;;;;5.47;4.37;;;;;;;22.04;74.45;99292.81;2700463;88;21092;-62
2021/07/31 05:01:20;;;;;;;;;;;;;;;22.19;73.67;99293.77;2699478;87;21070;-62
2021/07/31 05:05:24;;;;;;;6.97;5.60;;;;;;;22.33;73.35;99295.27;2685510;88;20117;-62
2021/07/31 05:09:26;;;;;;;6.25;4.70;;;;;;;22.45;72.73;99297.23;2696571;85;21192;-62
2021/07/31 05:13:29;;;;;;;6.00;4.42;;;;;;;22.61;72.11;99297.98;2715869;86;21003;-62
2021/07/31 05:17:43;;;;;;;6.20;4.50;;;;;;;22.76;71.70;99295.36;2732767;86;21069;-62
2021/07/31 05:21:50;;;;;;;6.90;5.03;;;;;;;22.87;70.99;99304.07;2685778;88;21105;-62
2021/07/31 05:25:57;;;;;;;6.67;4.47;;;;;;;23.00;70.59;99312.53;2686092;88;21101;-62
2021/07/31 05:30:01;;;;;;;6.17;4.95;;;;;;;23.11;70.33;99322.59;2685822;88;21057;-62
2021/07/31 05:34:06;;;;;;;8.73;5.33;;;;;;;23.25;69.81;99327.79;2699285;85;20970;-62
2021/07/31 05:38:12;;;;;;;6.55;5.08;;;;;;;23.38;69.49;99319.99;2740792;85;21023;-62
2021/07/31 05:42:15;;;;;;;5.72;4.58;;;;;;;23.58;68.97;99320.18;2747647;86;21032;-62
2021/07/31 05:46:18;;;;;;;5.35;4.65;;;;;;;23.88;68.26;99330.11;2747773;86;21087;-62
2021/07/31 05:50:22;;;;;;;6.80;4.90;;;;;;;24.09;67.03;99328.16;2747880;86;21505;-62
2021/07/31 05:54:23;;;;;;;7.30;5.17;;;;;;;24.31;66.30;99330.23;2734315;85;21044;-62
2021/07/31 05:58:28;;;;;;;6.80;5.70;;;;;;;24.52;65.60;99326.57;2723702;86;21026;-62
2021/07/31 06:02:32;;;;;;;7.10;5.05;;;;;;;24.60;64.69;99339.80;2687334;88;21062;-62
2021/07/31 06:06:38;;;;;;;8.38;5.05;;;;;;;24.68;64.52;99350.28;2687480;87;21134;-62
2021/07/31 06:10:41;;;;;;;11.93;6.75;;;;;;;24.70;63.96;99350.56;2687467;88;21098;-62
2021/07/31 06:14:44;;;;;;;9.93;5.62;;;;;;;24.85;63.64;99360.41;2706564;85;21023;-62
2021/07/31 06:18:48;;;;;;;7.97;5.50;;;;;;;25.00;62.71;99359.05;2706644;86;21055;-62
2021/07/31 06:22:49;;;;;;;15.63;5.28;;;;;;;25.11;62.63;99366.31;2748402;86;21043;-62
2021/07/31 06:26:55;;;;;;;7.40;5.35;;;;;;;25.21;62.01;99373.31;2747972;86;39258;-62
2021/07/31 06:30:56;;;;;;;5.95;5.03;;;;;;;25.28;61.64;99374.52;2744195;85;21123;-62
2021/07/31 06:34:58;;;;;;;8.35;4.30;;;;;;;25.35;61.04;99365.65;2709230;86;21069;-62
2021/07/31 06:39:04;;;;;;;6.95;4.58;;;;;;;25.33;60.79;99376.48;2728117;86;21102;-62
2021/07/31 06:43:06;;;;;;;14.63;6.78;;;;;;;25.30;61.40;99374.26;2728120;85;21377;-62
2021/07/31 06:47:07;;;;;;;7.30;4.92;;;;;;;25.37;60.54;99375.75;2708294;85;21056;-62
2021/07/31 06:51:10;;;;;;;11.25;4.65;;;;;;;25.51;60.74;99380.36;2723931;85;21031;-63
2021/07/31 06:55:12;;;;;;;5.72;5.05;;;;;;;25.62;59.49;99380.54;2709168;85;21055;-62
2021/07/31 06:59:15;;;;;;;6.72;4.60;;;;;;;25.45;59.38;99384.05;2702331;85;21034;-62
2021/07/31 07:03:18;;;;;;;14.18;4.95;;;;;;;25.36;60.25;99382.82;2702844;85;21069;-62
2021/07/31 07:07:20;;;;;;;5.50;4.35;;;;;;;25.47;59.73;99388.73;2688438;86;21099;-62
2021/07/31 07:11:21;;;;;;;4.42;3.95;;;;;;;25.47;59.58;99394.18;2693042;88;21011;-61
2021/07/31 07:15:25;;;;;;;6.58;4.35;;;;;;;25.85;60.49;99385.52;2706725;87;21044;-62
2021/07/31 07:19:28;;;;;;;4.58;3.67;;;;;;;26.23;58.98;99392.89;2706951;87;21012;-61
2021/07/31 07:23:30;;;;;;;9.88;4.20;;;;;;;26.48;58.07;99396.22;2692050;87;21011;-62
2021/07/31 07:27:43;;;;;;;5.33;4.10;;;;;;;26.97;56.70;99393.27;2651149;89;21011;-62
2021/07/31 07:31:44;;;;;;;6.80;3.52;;;;;;;27.41;54.53;99400.50;2660513;88;21076;-61
2021/07/31 07:35:47;;;;;;;12.50;3.70;;;;;;;27.67;53.96;99383.81;2653956;87;21037;-61
2021/07/31 07:39:49;;;;;;;4.28;3.80;;;;;;;27.91;53.28;99392.46;2657314;87;21063;-61
2021/07/31 07:43:50;;;;;;;9.63;3.90;;;;;;;28.09;52.32;99391.75;2667748;87;21087;-61
2021/07/31 07:47:52;;;;;;;4.78;3.85;;;;;;;28.36;52.80;99380.72;2675309;87;21004;-61
2021/07/31 07:51:54;;;;;;;5.12;3.40;;;;;;;28.62;51.81;99387.65;2665771;87;21056;-62
2021/07/31 07:55:55;;;;;;;4.90;2.98;;;;;;;28.87;51.04;99394.31;2669140;87;21047;-62
2021/07/31 07:59:57;;;;;;;9.83;4.15;;;;;;;29.00;50.22;99392.17;2663045;87;20992;-61
2021/07/31 08:03:59;;;;;;;7.55;3.95;;;;;;;28.78;50.22;99389.88;2692864;87;21044;-63
2021/07/31 08:08:02;;;;;;;5.92;3.35;;;;;;;28.62;50.57;99391.75;2696223;87;21075;-61
2021/07/31 08:12:07;;;;;;;10.08;4.15;;;;;;;28.53;50.75;99384.33;2665994;87;21080;-61
2021/07/31 08:16:10;;;;;;;70.15;14.23;;;;;;;28.16;51.24;99390.19;2674105;87;21053;-62
2021/07/31 08:20:13;;;;;;;9.65;4.45;;;;;;;28.42;52.18;99399.87;2677177;87;21063;-62
2021/07/31 08:24:16;;;;;;;7.92;4.17;;;;;;;28.63;51.09;99400.23;2669656;87;21057;-61
2021/07/31 08:28:18;;;;;;;6.72;3.37;;;;;;;28.96;51.50;99400.66;2706239;88;21574;-61
2021/07/31 08:32:20;;;;;;;4.60;2.98;;;;;;;29.38;50.39;99403.72;2656013;87;21071;-61
2021/07/31 08:36:35;;;;;;;6.45;3.92;;;;;;;29.47;50.60;99407.58;2621991;91;21012;-61
2021/07/31 08:40:37;;;;;;;6.72;4.05;;;;;;;29.50;50.11;99407.05;2645494;87;21051;-62
2021/07/31 08:44:40;;;;;;;6.35;3.85;;;;;;;29.13;50.15;99421.77;2665707;89;21051;-62
2021/07/31 08:48:45;;;;;;;3.87;2.83;;;;;;;28.78;49.66;99413.14;2710076;88;21024;-62
2021/07/31 08:52:48;;;;;;;6.30;3.72;;;;;;;28.54;50.49;99416.90;2695414;88;20960;-62
2021/07/31 08:56:54;;;;;;;5.17;3.50;;;;;;;28.43;50.77;99405.63;2695615;88;21088;-62
2021/07/31 09:00:57;;;;;;;10.05;4.08;;;;;;;28.31;49.84;99401.21;2710058;88;20976;-62
2021/07/31 09:04:59;;;;;;;4.05;3.60;;;;;;;28.36;50.69;99389.45;2707028;86;21088;-61
2021/07/31 09:09:14;;;;;;;7.55;3.17;;;;;;;28.46;49.86;99385.94;2706813;86;21032;-62
2021/07/31 09:13:18;;;;;;;3.02;2.62;;;;;;;28.56;49.29;99387.36;2693666;87;21053;-61
2021/07/31 09:17:26;;;;;;;7.00;3.27;;;;;;;28.85;48.21;99371.88;2694245;87;20958;-61
2021/07/31 09:21:31;;;;;;;9.30;4.62;;;;;;;29.28;48.83;99376.31;2705465;87;21068;-61
2021/07/31 09:25:36;;;;;;;4.83;2.17;;;;;;;29.35;46.72;99347.56;2720077;87;21063;-61
2021/07/31 09:29:43;;;;;;;5.15;2.27;;;;;;;29.59;45.84;99360.75;2719928;87;21043;-62
2021/07/31 09:33:48;;;;;;;4.33;2.85;;;;;;;29.45;44.38;99349.52;2713552;87;21013;-62
2021/07/31 09:37:54;;;;;;;4.03;2.85;;;;;;;29.53;44.59;99356.92;2703184;87;21064;-61
2021/07/31 09:41:56;;;;;;;6.53;2.77;;;;;;;29.59;44.53;99362.66;2703776;87;21004;-62
2021/07/31 09:45:58;;;;;;;7.70;2.92;;;;;;;29.47;43.08;99351.42;2699298;87;21060;-61
2021/07/31 09:50:03;;;;;;;4.40;2.60;;;;;;;29.47;43.08;99351.42;2662208;87;21051;-61
2021/07/31 09:54:09;;;;;;;6.47;2.27;;;;;;;29.56;44.17;99360.48;2687858;88;21027;-61
2021/07/31 09:58:19;;;;;;;4.67;2.00;;;;;;;29.29;44.14;99364.30;2693866;87;21012;-61
2021/07/31 10:02:22;;;;;;;3.22;2.58;;;;;;;29.21;44.95;99347.86;2676850;87;21060;-61
2021/07/31 10:06:36;;;;;;;12.53;3.58;;;;;;;29.37;46.33;99363.73;2668863;88;21031;-61
2021/07/31 10:10:39;;;;;;;5.22;3.75;;;;;;;29.73;45.28;99350.05;2685230;88;21051;-61
2021/07/31 10:14:43;;;;;;;11.03;3.85;;;;;;;29.44;44.75;99345.13;2687788;87;21087;-62
2021/07/31 10:19:01;;;;;;;13.30;3.75;;;;;;;29.24;45.83;99351.95;2673300;88;21056;-61
2021/07/31 10:23:03;;;;;;;4.05;2.20;;;;;;;29.29;45.67;99356.08;2635394;88;21046;-61
2021/07/31 10:27:42;;;;;;;4.33;2.25;;;;;;;29.14;44.37;99352.77;2666583;88;21023;-61
2021/07/31 10:31:44;;;;;;;14.00;3.77;;;;;;;29.21;45.05;99355.51;2687938;88;21051;-62
2021/07/31 10:35:46;;;;;;;12.73;1.85;;;;;;;29.42;43.18;99328.16;2687995;87;21012;-61
2021/07/31 10:39:49;;;;;;;4.28;2.62;;;;;;;29.60;43.24;99341.02;2710871;88;21067;-61
2021/07/31 10:44:10;;;;;;;11.18;2.37;;;;;;;29.66;42.74;99348.13;2686285;87;21070;-62
2021/07/31 10:48:33;;;;;;;3.08;1.92;;;;;;;29.74;43.72;99343.47;2699645;87;21056;-61
2021/07/31 10:53:12;;;;;;;7.83;2.05;;;;;;;29.84;43.74;99337.14;2689630;87;21081;-61
2021/07/31 10:57:59;;;;;;;3.42;1.70;;;;;;;29.94;42.62;99341.78;2671195;87;21075;-61
2021/07/31 11:02:37;;;;;;;14.15;2.87;;;;;;;29.89;42.75;99328.09;2623639;88;21014;-61
2021/07/31 11:07:25;;;;;;;44.20;10.95;;;;;;;29.92;42.87;99316.57;2641336;89;21180;-61
2021/07/31 11:11:28;;;;;;;4.65;2.52;;;;;;;29.87;43.17;99327.53;2644774;87;21070;-61
2021/07/31 11:15:30;;;;;;;3.92;2.17;;;;;;;29.89;44.07;99328.09;2675587;87;21537;-61
2021/07/31 11:19:33;;;;;;;4.90;2.12;;;;;;;29.68;43.30;99337.73;2664954;87;21042;-61
2021/07/31 11:23:42;;;;;;;6.80;2.42;;;;;;;29.14;43.36;99320.75;2702201;86;21006;-62
2021/07/31 11:28:04;;;;;;;3.62;1.98;;;;;;;29.14;43.36;99320.75;2645391;87;21119;-62
2021/07/31 11:32:14;;;;;;;5.85;3.33;;;;;;;28.94;44.40;99324.27;2665282;87;21055;-62
2021/07/31 11:36:16;;;;;;;4.00;2.42;;;;;;;29.03;44.65;99325.39;2709961;88;20964;-61
2021/07/31 11:40:18;;;;;;;47.10;9.08;;;;;;;29.21;44.46;99316.38;2683773;89;21003;-62
2021/07/31 11:44:27;;;;;;;8.05;3.20;;;;;;;29.48;45.47;99318.02;2711117;86;21019;-62
2021/07/31 11:48:46;;;;;;;3.80;2.42;;;;;;;29.53;44.65;99281.59;2710802;88;21062;-62
2021/07/31 11:52:48;;;;;;;9.65;2.90;;;;;;;29.85;43.87;99320.13;2710796;88;21019;-62
2021/07/31 11:56:57;;;;;;;19.37;4.60;;;;;;;29.62;44.15;99319.11;2683942;89;21083;-62
2021/07/31 12:00:59;;;;;;;4.90;2.20;;;;;;;29.67;44.77;99320.19;2710960;87;21362;-62
2021/07/31 12:05:02;;;;;;;3.70;2.22;;;;;;;29.68;45.11;99314.98;2676057;89;21069;-62
2021/07/31 12:09:27;;;;;;;5.95;2.72;;;;;;;29.71;44.44;99304.30;2706419;86;21052;-61
2021/07/31 12:13:31;;;;;;;68.85;17.98;;;;;;;29.60;44.73;99297.18;2672101;89;21019;-62
2021/07/31 12:17:32;;;;;;;45.67;7.03;;;;;;;29.72;46.11;99295.51;2706453;88;21055;-61
2021/07/31 12:21:34;;;;;;;24.07;6.00;;;;;;;29.76;44.48;99298.80;2671887;89;21053;-62
2021/07/31 12:25:38;;;;;;;6.58;2.55;;;;;;;30.01;44.82;99290.77;2706824;87;21016;-62
2021/07/31 12:29:51;;;;;;;3.30;2.22;;;;;;;30.26;45.08;99297.27;2672232;89;21041;-62
2021/07/31 12:33:54;;;;;;;2.72;2.52;;;;;;;30.41;44.16;99296.38;2706848;88;21056;-62
2021/07/31 12:38:20;;;;;;;17.15;4.92;;;;;;;30.49;43.46;99294.42;2671903;89;21012;-61
2021/07/31 12:42:22;;;;;;;2.83;2.05;;;;;;;30.36;43.48;99297.20;2706675;88;21032;-61
2021/07/31 12:46:24;;;;;;;3.02;2.72;;;;;;;30.00;43.09;99298.16;2671979;89;20996;-61
2021/07/31 12:50:26;;;;;;;6.25;2.67;;;;;;;29.99;44.91;99291.61;2706635;87;21047;-62
2021/07/31 12:54:29;;;;;;;2.55;2.35;;;;;;;30.18;44.23;99286.34;2671785;89;21068;-61
2021/07/31 12:58:34;;;;;;;10.88;3.70;;;;;;;30.55;44.78;99286.42;2706674;87;21095;-61
2021/07/31 13:02:35;;;;;;;3.33;2.95;;;;;;;30.91;43.65;99282.09;2671779;89;21024;-61
2021/07/31 13:06:41;;;;;;;4.83;2.33;;;;;;;31.20;44.03;99283.27;2726507;86;21007;-62
2021/07/31 13:10:45;;;;;;;6.47;2.77;;;;;;;31.26;42.49;99284.84;2717425;87;20984;-61
2021/07/31 13:14:46;;;;;;;1.72;1.60;;;;;;;30.97;42.50;99284.79;2726469;87;21054;-61
2021/07/31 13:19:06;;;;;;;2.22;1.92;;;;;;;30.72;42.75;99282.51;2717633;87;21036;-62
2021/07/31 13:23:09;;;;;;;34.03;5.97;;;;;;;30.59;43.21;99283.37;2726441;87;21038;-62
2021/07/31 13:27:13;;;;;;;11.03;2.45;;;;;;;30.58;43.00;99274.06;2757063;86;21098;-62
2021/07/31 13:31:15;;;;;;;3.87;2.10;;;;;;;30.81;42.69;99284.09;2757251;86;21088;-62
2021/07/31 13:35:17;;;;;;;5.72;2.52;;;;;;;31.03;43.07;99288.59;2757202;86;21036;-62
2021/07/31 13:39:21;;;;;;;12.53;4.40;;;;;;;30.99;41.56;99281.20;2726704;87;21022;-62
2021/07/31 13:43:23;;;;;;;2.02;1.45;;;;;;;30.98;42.17;99280.94;2717984;87;21008;-62
2021/07/31 13:47:42;;;;;;;3.72;1.85;;;;;;;31.15;42.21;99279.97;2726746;87;21059;-62
2021/07/31 13:51:41;;;;;;;2.70;1.35;;;;;;;31.26;41.62;99270.31;2756512;86;21090;-61
2021/07/31 13:55:43;;;;;;;5.70;1.10;;;;;;;31.28;40.96;99268.89;2757210;86;21011;-62
2021/07/31 14:00:04;;;;;;;2.02;1.62;;;;;;;31.14;40.25;99267.34;2757217;86;21004;-62
2021/07/31 14:04:24;;;;;;;15.20;2.40;;;;;;;31.25;40.59;99269.48;2720369;87;21043;-61
2021/07/31 14:08:36;;;;;;;2.98;1.70;;;;;;;31.44;39.40;99266.00;2707136;88;21084;-61
2021/07/31 14:12:38;;;;;;;57.55;11.70;;;;;;;31.39;39.22;99273.73;2706935;88;21031;-61
2021/07/31 14:16:44;;;;;;;3.02;1.52;;;;;;;31.38;39.94;99270.72;2706906;88;21000;-62
2021/07/31 14:20:45;;;;;;;2.85;1.30;;;;;;;31.49;40.28;99275.56;2671972;89;21008;-61
2021/07/31 14:24:47;;;;;;;3.40;1.82;;;;;;;31.39;40.12;99277.05;2706733;88;21055;-62
2021/07/31 14:29:10;;;;;;;3.98;1.92;;;;;;;31.14;40.95;99282.45;2671788;89;20995;-61
2021/07/31 14:33:11;;;;;;;6.03;1.52;;;;;;;31.30;39.79;99269.99;2706362;88;21269;-62
2021/07/31 14:37:14;;;;;;;1.77;1.47;;;;;;;31.31;38.73;99264.77;2671859;89;21019;-62
2021/07/31 14:41:16;;;;;;;1.40;1.17;;;;;;;31.39;38.89;99269.61;2707189;88;21036;-62
2021/07/31 14:45:18;;;;;;;1.67;0.90;;;;;;;31.14;38.89;99275.59;2672057;89;21028;-61
2021/07/31 14:49:21;;;;;;;3.85;1.50;;;;;;;30.85;38.75;99277.72;2706985;88;20968;-62
2021/07/31 14:53:22;;;;;;;4.83;1.72;;;;;;;31.02;39.17;99277.34;2672217;89;21024;-59
2021/07/31 14:57:30;;;;;;;6.95;1.50;;;;;;;31.27;38.52;99263.14;2706800;87;21003;-60
2021/07/31 15:01:31;;;;;;;3.22;1.25;;;;;;;31.06;37.93;99269.36;2672097;89;21083;-59
2021/07/31 15:05:33;;;;;;;3.27;1.02;;;;;;;31.04;38.65;99275.66;2683879;88;21016;-59
2021/07/31 15:10:15;;;;;;;1.55;0.93;;;;;;;31.23;38.96;99266.20;2684067;87;21067;-59
2021/07/31 15:14:17;;;;;;;3.22;1.37;;;;;;;31.39;38.65;99258.62;2711156;88;21019;-60
2021/07/31 15:18:24;;;;;;;2.67;1.22;;;;;;;31.48;38.20;99256.90;2683962;89;21004;-60
2021/07/31 15:22:26;;;;;;;1.32;0.98;;;;;;;31.38;39.09;99265.23;2711121;88;21055;-61
2021/07/31 15:26:29;;;;;;;20.57;4.60;;;;;;;31.13;39.40;99253.35;2684077;89;21035;-60
2021/07/31 15:30:31;;;;;;;20.60;4.87;;;;;;;31.01;40.15;99266.09;2711357;88;21011;-60
2021/07/31 15:34:33;;;;;;;2.98;1.62;;;;;;;30.88;40.52;99259.34;2711173;88;20956;-60
2021/07/31 15:38:48;;;;;;;3.50;1.82;;;;;;;30.94;39.68;99263.41;2710653;88;21044;-60
2021/07/31 15:42:49;;;;;;;32.33;5.80;;;;;;;30.92;39.74;99250.78;2682631;89;21026;-59
2021/07/31 15:46:51;;;;;;;3.70;1.75;;;;;;;30.64;39.84;99253.17;2708646;87;21549;-60
2021/07/31 15:50:55;;;;;;;1.70;1.00;;;;;;;30.42;39.92;99255.48;2708605;88;21036;-60
2021/07/31 15:54:58;;;;;;;2.42;1.37;;;;;;;30.30;39.42;99257.20;2708832;88;20965;-60
2021/07/31 15:59:06;;;;;;;7.03;1.75;;;;;;;30.24;40.26;99255.61;2708752;88;21026;-60
2021/07/31 16:03:09;;;;;;;2.75;1.85;;;;;;;30.23;40.59;99261.63;2708733;87;21009;-59
2021/07/31 16:07:15;;;;;;;2.87;1.27;;;;;;;30.11;41.02;99268.02;2712323;86;21168;-60
2021/07/31 16:11:19;;;;;;;3.60;1.50;;;;;;;30.04;41.58;99263.63;2713218;88;21008;-60
2021/07/31 16:15:22;;;;;;;3.17;1.67;;;;;;;30.13;41.17;99257.58;2713040;88;21092;-60
2021/07/31 16:19:24;;;;;;;5.67;1.65;;;;;;;30.20;41.16;99258.08;2713179;88;21024;-60
2021/07/31 16:23:26;;;;;;;27.55;5.78;;;;;;;30.21;41.37;99258.34;2713071;88;21049;-60
2021/07/31 16:27:29;;;;;;;1.95;1.35;;;;;;;30.15;40.80;99250.69;2712998;88;20984;-60
2021/07/31 16:31:31;;;;;;;2.55;1.37;;;;;;;30.02;40.58;99252.70;2712954;88;21059;-60
2021/07/31 16:35:34;;;;;;;4.92;1.85;;;;;;;29.88;40.96;99255.20;2712834;88;21036;-60
2021/07/31 16:39:41;;;;;;;2.30;0.80;;;;;;;29.75;41.69;99254.68;2712785;88;21004;-60
2021/07/31 16:43:43;;;;;;;3.72;1.10;;;;;;;29.63;40.98;99254.98;2713017;88;21036;-60
2021/07/31 16:47:45;;;;;;;11.78;3.72;;;;;;;29.40;41.52;99261.84;2712572;88;21032;-60
2021/07/31 16:51:47;;;;;;;8.83;1.32;;;;;;;29.01;42.51;99270.64;2694616;88;21071;-60
2021/07/31 16:55:49;;;;;;;9.63;3.27;;;;;;;28.82;43.13;99267.08;2712681;88;21019;-60
2021/07/31 16:59:51;;;;;;;7.70;1.40;;;;;;;28.75;43.24;99259.66;2712702;86;21027;-60
2021/07/31 17:03:53;;;;;;;56.30;10.72;;;;;;;28.73;42.85;99270.05;2715050;86;21095;-59
2021/07/31 17:08:07;;;;;;;8.08;2.35;;;;;;;28.68;42.53;99273.59;2751218;85;21048;-60
2021/07/31 17:12:09;;;;;;;16.97;4.40;;;;;;;28.61;41.79;99276.59;2751791;86;21003;-60
2021/07/31 17:16:10;;;;;;;21.65;4.85;;;;;;;28.30;42.36;99283.36;2751151;86;21018;-60
2021/07/31 17:20:13;;;;;;;10.70;2.70;;;;;;;28.30;42.36;99283.36;2751403;86;20984;-60
2021/07/31 17:24:15;;;;;;;20.05;3.95;;;;;;;28.17;42.72;99286.59;2751462;86;20980;-60
2021/07/31 17:28:19;;;;;;;9.35;1.90;;;;;;;28.00;42.70;99292.20;2751312;86;21494;-60
2021/07/31 17:32:21;;;;;;;2.02;0.82;;;;;;;27.83;42.79;99293.77;2751720;86;20997;-60
2021/07/31 17:36:30;;;;;;;4.47;1.57;;;;;;;27.67;42.69;99289.58;2751364;86;21021;-60
2021/07/31 17:40:32;;;;;;;2.75;1.27;;;;;;;27.51;42.91;99300.92;2751343;86;20961;-60
2021/07/31 17:44:34;;;;;;;32.63;4.65;;;;;;;27.31;43.47;99296.12;2751303;86;20988;-60
2021/07/31 17:48:37;;;;;;;9.33;2.30;;;;;;;27.14;43.97;99303.94;2751289;86;20953;-60
2021/07/31 17:52:40;;;;;;;3.65;1.50;;;;;;;26.99;44.71;99306.52;2751437;86;20941;-59
2021/07/31 17:57:13;;;;;;;10.45;1.50;;;;;;;26.81;45.44;99312.04;2751145;86;21016;-60
2021/07/31 18:01:14;;;;;;;31.27;7.90;;;;;;;26.64;45.77;99315.44;2751435;86;20977;-59
2021/07/31 18:05:16;;;;;;;21.87;2.70;;;;;;;26.45;45.99;99319.03;2738271;86;20996;-61
2021/07/31 18:14:04;;;;;;;6.47;2.25;;;;;;;25.91;46.88;99338.20;2712609;88;21036;-59
2021/07/31 18:18:42;;;;;;;14.10;2.67;;;;;;;25.62;47.62;99331.53;2712574;88;21032;-60
2021/07/31 18:22:44;;;;;;;6.33;2.72;;;;;;;25.42;47.92;99336.91;2712514;88;21055;-60
2021/07/31 18:27:23;;;;;;;3.90;1.02;;;;;;;25.08;48.89;99339.60;2712708;88;21012;-60
2021/07/31 18:31:25;;;;;;;6.12;1.77;;;;;;;24.85;49.64;99340.53;2712446;88;21059;-60
2021/07/31 18:35:26;;;;;;;6.35;1.98;;;;;;;24.58;50.28;99350.09;2712492;88;21067;-60
2021/07/31 18:40:05;;;;;;;3.02;1.75;;;;;;;24.34;50.89;99350.13;2712495;88;21059;-60
2021/07/31 18:44:08;;;;;;;12.43;2.80;;;;;;;24.14;51.38;99360.57;2712423;88;21000;-60
2021/07/31 18:48:43;;;;;;;17.95;3.92;;;;;;;23.81;52.09;99369.08;2712610;88;21080;-59
2021/07/31 18:52:44;;;;;;;31.42;3.33;;;;;;;23.54;52.36;99372.77;2712613;88;21037;-60
2021/07/31 18:57:23;;;;;;;9.03;3.60;;;;;;;23.21;52.83;99368.14;2712551;88;21016;-60
2021/07/31 19:01:25;;;;;;;12.25;2.52;;;;;;;23.11;53.15;99373.28;2712203;88;21027;-60
2021/07/31 19:05:27;;;;;;;17.70;3.12;;;;;;;22.92;53.45;99388.79;2708371;86;20997;-60
2021/07/31 19:09:31;;;;;;;18.45;2.98;;;;;;;22.74;54.01;99389.64;2699885;87;21072;-60
2021/07/31 19:13:33;;;;;;;13.62;2.40;;;;;;;22.65;54.18;99413.00;2699796;87;21063;-59
2021/07/31 19:17:35;;;;;;;17.40;3.45;;;;;;;22.36;55.03;99426.73;2699744;88;21001;-60
2021/07/31 19:21:37;;;;;;;11.63;3.30;;;;;;;22.11;55.72;99420.85;2700014;88;21076;-60
2021/07/31 19:25:41;;;;;;;44.10;8.68;;;;;;;21.88;56.42;99418.77;2700022;88;20993;-60
2021/07/31 19:29:43;;;;;;;41.20;9.80;;;;;;;21.76;56.79;99433.55;2700165;88;21044;-60